Time Latitude Longitude Accuracy (66% radius in meters) Altitude (meters) Speed (km/hour) Bearing (degrees) Battery (%) GPS flag
13:47:34 57.034504 39.401455 1 172.60000610352 1.1299999952316 16.666259765625 2 1 delete
13:47:24 57.034415 39.401410 1.5 170.39999389648 0.9899999499321 14.562377929688 2 1 delete
13:47:13 57.034302 39.401331 8 170.60000610352 0.68999999761581 26.647338867188 2 1 delete
13:36:58 57.027339 39.400270 1.5 173.69999694824 1.0299999713898 6.08642578125 2 1 delete
13:36:48 57.027231 39.400268 1.5 171.89999389648 1.1599999666214 2.1148681640625 2 1 delete
13:36:37 57.027125 39.400254 8 172.89999389648 1.1299999952316 350.84289550781 2 1 delete
13:26:28 57.022374 39.401200 1.5 169.30000305176 1.3299999237061 342.01538085938 2 1 delete
13:26:18 57.022247 39.401293 1.5 171.30000305176 1.3299999237061 345.33325195312 2 1 delete
13:26:07 57.022157 39.401360 7.5 174.89999389648 1.0900000333786 346.52526855469 2 1 delete
13:15:57 57.017600 39.406148 1.5 179.89999389648 0.69999998807907 332.24304199219 3 1 delete
13:15:47 57.017515 39.406219 2 179.30000305176 0.8299999833107 335.36865234375 3 1 delete
13:15:31 57.017428 39.406336 7.5 177.80000305176 0.69999998807907 340.44982910156 3 1 delete
13:05:27 57.012362 39.409201 1.5 179.89999389648 1.3199999332428 50.476684570312 3 1 delete
13:05:22 57.012325 39.409119 1.5 180 1.1999999284744 45.10986328125 3 1 delete
13:05:17 57.012291 39.409034 1.5 179.5 1.2400000095367 57.420043945312 3 1 delete
13:05:01 57.012233 39.408842 8.5 177.5 1 46.065673828125 3 1 delete
12:54:46 57.006372 39.404364 2 175.80000305176 1.1399999856949 348.73352050781 4 1 delete
12:54:36 57.006243 39.404395 2.5 174.89999389648 0.91999995708466 357.28637695312 4 1 delete
12:54:25 57.006152 39.404496 8 176.60000610352 0.9099999666214 345.51452636719 4 1 delete
12:44:17 57.000111 39.407513 2 193.80000305176 0.83999997377396 351.98547363281 4 1 delete
12:44:11 57.000048 39.407522 2.5 193.5 0.93000000715256 350.62866210938 4 1 delete
12:44:06 56.999990 39.407515 2.5 192.5 0.87999999523163 348.33801269531 4 1 delete
12:43:55 56.999893 39.407606 9.5 194.60000610352 0.55000001192093 351.68334960938 4 1 delete
12:33:43 56.994279 39.410821 2 197.19999694824 2.0799999237061 336.10473632812 6 1 delete
12:33:38 56.994185 39.410887 2 197.39999389648 2.039999961853 342.83935546875 6 1 delete
12:33:28 56.994064 39.410924 2 196.19999694824 0.97999995946884 0.0054931640625 6 1 delete
12:33:18 56.993948 39.410879 2.5 196.60000610352 1.2999999523163 16.182861328125 6 1 delete
12:33:07 56.993836 39.410865 8.5 201.10000610352 1.0199999809265 357.33581542969 6 1 delete
12:22:57 56.989424 39.413437 2 178.39999389648 1.8499999046326 253.21838378906 6 1 delete
12:22:47 56.989460 39.413747 2 178 1.6999999284744 252.9052734375 6 1 delete
12:22:37 56.989492 39.414057 3 177 1.9099999666214 261.86462402344 6 1 delete
12:22:31 56.989511 39.414257 8.5 179 1.6599999666214 264.8583984375 6 1 delete
12:12:21 56.990454 39.422619 2 174.5 1.6399999856949 267.91259765625 8 1 delete
12:12:11 56.990459 39.422815 2 174 1.1200000047684 264.14978027344 8 1 delete
12:11:55 56.990484 39.423027 8.5 169.69999694824 0.81999999284744 261.01318359375 8 1 delete
12:01:45 56.993232 39.430879 1.5 181.5 1 174.75952148438 8 1 delete
12:01:35 56.993355 39.430898 2 182 1.2099999189377 189.08020019531 8 1 delete
12:01:19 56.993445 39.430946 10.5 179.30000305176 0.95999997854233 207.41638183594 9 1 delete
11:51:08 56.991807 39.439529 1.5 174.19999694824 1.1200000047684 294.63134765625 9 1 delete
11:50:58 56.991760 39.439697 1 171.89999389648 1.1999999284744 289.21508789062 9 1 delete
11:50:48 56.991746 39.439881 1.5 172.30000305176 1.0799999237061 281.08520507812 9 1 delete
11:50:33 56.991742 39.440095 1.5 171.89999389648 1.2099999189377 278.95935058594 9 1 delete
11:50:23 56.991733 39.440301 1.5 174.5 0.94999998807907 294.14245605469 9 1 delete
11:50:13 56.991705 39.440522 1.5 174.5 1.4599999189377 284.03503417969 9 1 delete
11:49:58 56.991654 39.440799 1.5 171.89999389648 1.1799999475479 282.02453613281 9 1 delete
11:49:48 56.991620 39.440955 2 171 1.2999999523163 289.48974609375 9 1 delete
11:49:37 56.991582 39.441146 12 167 0.95999997854233 290.89050292969 9 1 delete
11:39:28 56.990302 39.452524 2.5 186.30000305176 0.83999997377396 331.58386230469 11 1 delete
11:39:18 56.990235 39.452605 2.5 184.10000610352 1.1299999952316 322.84973144531 11 1 delete
11:39:07 56.990128 39.452784 13.5 178.89999389648 0.88999998569489 345.77270507812 11 1 delete